Terminal Aerodrome Forecast
Issued by NWS

Home | Current Version | Previous Version | Text Only | Print | Product List | Glossary On
Versions: 1 2 3 4 5 6 7 8 9 10 11 12 13 14 15 16 17 18 19
000
FTUS41 KPBZ 020000 AAA
TAFLBE
TAF AMD
KLBE 020006Z 0200/0224 12008G18KT 6SM -RA BR SCT004 OVC030
      TEMPO 0201/0205 3SM -RA BR BKN004
     FM020500 13008KT 1SM -RA BR OVC005
     FM021100 22010KT 4SM -DZ BR OVC012
     FM021500 29015G30KT 1SM -SHSN OVC008
     FM022000 29015G25KT 6SM -SHSN OVC018=

USA.gov is the U.S. government's official web portal to all federal, state and local government web resources and services.